• Join FlightAware (Why Join?)
  • Login
  • US Flag 
03:38AM EST


 

Airport Tracker/Info


-or-


 

Live Flight TrackerFlight Track Log ✈ SKQ45 ✈ 24-Apr-2013 ✈ KSTL - KOSU

Flight Track Log - Related Links

Times and Time Zones

All times are in EDT time to prevent confusion due to time zone crossing. See the SKQ45 flight status page for this flight to view local times or setup timezone preferences in your user account.

Time Position Orientation Groundspeed Altitude Reporting Facility
EDT Latitude Longitude Course Direction KTS MPH feet Rate Location/Type
11:43PM 38.7689 -90.3144 North 127 146 2,400  Level FAA TRACON SMA TRACON (SMA)
11:43PM 38.7842 -90.3111 10° North 145 167 3,200 2,100 Climbing FAA TRACON SMA TRACON (SMA)
11:44PM 38.7933 -90.3000 43° Northeast 151 174 3,800 1,740 Climbing FAA TRACON SMA TRACON (SMA)
11:44PM 38.8017 -90.2872 50° Northeast 152 175 4,400 1,740 Climbing FAA TRACON SMA TRACON (SMA)
11:44PM 38.8125 -90.2697 52° Northeast 162 186 5,000 1,680 Climbing FAA TRACON SMA TRACON (SMA)
11:45PM 38.8214 -90.2544 53° Northeast 170 196 5,500 1,500 Climbing FAA TRACON SMA TRACON (SMA)
11:45PM 38.8267 -90.2369 69° East 178 205 6,000 1,560 Climbing FAA TRACON SMA TRACON (SMA)
11:45PM 38.8297 -90.2119 81° East 182 209 6,600 1,560 Climbing FAA TRACON SMA TRACON (SMA)
11:46PM 38.8331 -90.1922 78° East 183 211 7,100 1,500 Climbing FAA TRACON SMA TRACON (SMA)
11:46PM 38.8372 -90.1728 75° East 183 211 7,600 1,500 Climbing FAA TRACON SMA TRACON (SMA)
11:46PM 38.8422 -90.1481 75° East 187 215 8,100 1,140 Climbing FAA TRACON SMA TRACON (SMA)
11:47PM 38.8464 -90.1275 75° East 192 221 8,400 1,020 Climbing FAA TRACON SMA TRACON (SMA)
11:47PM 38.8511 -90.1069 74° East 196 226 8,800 1,500 Climbing FAA TRACON SMA TRACON (SMA)
11:47PM 38.8564 -90.0803 76° East 200 230 9,400 1,440 Climbing FAA TRACON SMA TRACON (SMA)
11:48PM 39.0117 -90.0550 38° Northeast  Level FlightAware Approximate
11:48PM 38.8603 -90.0586 77° East 202 232 9,800  Level FAA TRACON SMA TRACON (SMA)
11:48PM 38.8653 -90.0372 73° East 204 235 10,200 1,380 Climbing FAA TRACON SMA TRACON (SMA)
11:48PM 38.8706 -90.0100 76° East 205 236 10,700 1,500 Climbing FAA TRACON SMA TRACON (SMA)
11:49PM 38.8753 -89.9878 75° East 209 241 11,200 1,260 Climbing FAA TRACON SMA TRACON (SMA)
11:49PM 38.8797 -89.9644 76° East 216 249 11,600 1,260 Climbing FAA TRACON SMA TRACON (SMA)
11:49PM 38.8853 -89.9358 76° East 219 252 12,100 1,200 Climbing FAA TRACON SMA TRACON (SMA)
11:50PM 38.8908 -89.9125 73° East 221 254 12,400 1,200 Climbing FAA TRACON SMA TRACON (SMA)
11:50PM 38.8953 -89.8886 77° East 223 257 12,900 1,440 Climbing FAA TRACON SMA TRACON (SMA)
11:50PM 38.9017 -89.8594 74° East 224 258 13,400 1,320 Climbing FAA TRACON SMA TRACON (SMA)
11:51PM 38.9058 -89.8350 78° East 225 259 13,800 1,200 Climbing FAA TRACON SMA TRACON (SMA)
11:51PM 38.9122 -89.8117 71° East 227 261 14,200 1,140 Climbing FAA TRACON SMA TRACON (SMA)
11:51PM 38.9175 -89.7803 78° East 232 267 14,600 1,020 Climbing FAA TRACON SMA TRACON (SMA)
11:52PM 38.9225 -89.7556 75° East 234 269 14,900 1,200 Climbing FAA TRACON SMA TRACON (SMA)
11:52PM 38.9283 -89.7306 73° East 238 274 15,400 1,800 Climbing FAA TRACON SMA TRACON (SMA)
11:52PM 38.9347 -89.6989 75° East 238 274 16,100 1,440 Climbing FAA TRACON SMA TRACON (SMA)
11:53PM 38.9400 -89.6733 75° East 240 276 16,400 1,020 Climbing FAA TRACON SMA TRACON (SMA)
11:53PM 38.9458 -89.6478 74° East 242 278 16,800 1,380 Climbing FAA TRACON SMA TRACON (SMA)
11:53PM 38.9525 -89.6150 75° East 245 282 17,300 1,380 Climbing FAA TRACON SMA TRACON (SMA)
11:54PM 38.9581 -89.5889 75° East 249 287 17,700 720 Climbing FAA TRACON SMA TRACON (SMA)
11:54PM 38.9631 -89.5628 76° East 249 287 17,800 720 Climbing FAA TRACON SMA TRACON (SMA)
11:54PM 38.9706 -89.5289 74° East 253 291 18,200 1,020 Climbing FAA TRACON SMA TRACON (SMA)
11:55PM 38.9769 -89.5019 73° East 256 295 18,500 900 Climbing FAA TRACON SMA TRACON (SMA)
11:55PM 38.9822 -89.4742 76° East 261 300 18,800 720 Climbing FAA TRACON SMA TRACON (SMA)
11:55PM 38.9864 -89.4372 82° East 270 311 19,000 420 Climbing FAA TRACON SMA TRACON (SMA)
11:56PM 38.9931 -89.4078 74° East 279 321 19,100  Climbing FAA TRACON SMA TRACON (SMA)
11:56PM 39.0025 -89.3778 68° East 289 333 19,000 -180 Descending FAA TRACON SMA TRACON (SMA)
11:56PM 39.0081 -89.3361 80° East 304 350 19,000  Level FAA TRACON SMA TRACON (SMA)
11:57PM 39.0167 -89.3039 71° East 309 356 19,000  Level FAA TRACON SMA TRACON (SMA)
11:57PM 39.0247 -89.2622 76° East 314 361 19,000  Level FAA TRACON SMA TRACON (SMA)
11:57PM 39.0308 -89.2281 77° East 318 366 19,000  Level FAA TRACON SMA TRACON (SMA)
11:58PM 39.0406 -89.1953 69° East 319 367 19,000  Level FAA TRACON SMA TRACON (SMA)
11:58PM 39.0464 -89.1606 78° East 322 371 19,000  Level FAA TRACON SMA TRACON (SMA)
11:58PM 39.0536 -89.1264 75° East 323 372 19,000  Level FAA TRACON SMA TRACON (SMA)
11:59PM 39.0669 -89.1050 51° Northeast 324 373 19,000  Level Kansas City Center
12:00AM 39.0889 -88.9936 76° East 323 372 19,000  Level Kansas City Center
12:01AM 39.1131 -88.8831 74° East 327 376 19,000  Level Kansas City Center
12:02AM 39.1353 -88.7711 76° East 326 375 19,000  Level Kansas City Center
12:03AM 39.1575 -88.6594 76° East 324 373 19,000  Level Kansas City Center
12:04AM 39.1761 -88.5558 77° East 322 371 19,000  Level Kansas City Center
12:05AM 39.1975 -88.4431 76° East 322 371 19,000  Level Kansas City Center
12:06AM 39.2194 -88.3311 76° East 321 369 19,000  Level Kansas City Center
12:07AM 39.2397 -88.2172 77° East 323 372 19,000  Level Kansas City Center
12:08AM 39.2608 -88.1039 76° East 324 373 19,000  Level Kansas City Center
12:09AM 39.2819 -87.9897 77° East 325 374 19,000  Level Kansas City Center
12:10AM 39.3033 -87.8747 76° East 326 375 19,000  Level Kansas City Center
12:11AM 39.3233 -87.7628 77° East 324 373 19,000  Level Indianapolis Center
12:12AM 39.3439 -87.6475 77° East 327 376 19,000  Level Indianapolis Center
12:13AM 39.3658 -87.5292 76° East 325 374 19,000  Level Indianapolis Center
12:14AM 39.3861 -87.4133 77° East 325 374 19,000  Level Indianapolis Center
12:15AM 39.4075 -87.2997 76° East 324 373 19,000  Level Indianapolis Center
12:16AM 39.4303 -87.1669 77° East 324 373 19,000  Level Indianapolis Center
12:17AM 39.4511 -87.0511 77° East 327 376 19,000  Level Indianapolis Center
12:18AM 39.4714 -86.9375 77° East 324 373 19,000  Level Indianapolis Center
12:19AM 39.4919 -86.8217 77° East 327 376 19,000  Level Indianapolis Center
12:20AM 39.5117 -86.7086 77° East 323 372 19,000  Level Indianapolis Center
12:21AM 39.5317 -86.5944 77° East 324 373 19,000  Level Indianapolis Center
12:22AM 39.5508 -86.4808 78° East 323 372 19,000  Level Indianapolis Center
12:23AM 39.5706 -86.3667 77° East 324 373 19,000  Level Indianapolis Center
12:24AM 39.5892 -86.2547 78° East 322 371 19,000  Level Indianapolis Center
12:25AM 39.6089 -86.1431 77° East 321 369 19,000  Level Indianapolis Center
12:26AM 39.6275 -86.0306 78° East 320 368 19,000  Level Indianapolis Center
12:27AM 39.6458 -85.9167 78° East 322 371 19,000  Level Indianapolis Center
12:28AM 39.6647 -85.8042 78° East 320 368 19,000  Level Indianapolis Center
12:29AM 39.6836 -85.6908 78° East 320 368 19,000  Level Indianapolis Center
12:30AM 39.7022 -85.5778 78° East 319 367 19,000  Level Indianapolis Center
12:31AM 39.7197 -85.4631 79° East 322 371 19,000  Level Indianapolis Center
12:32AM 39.7386 -85.3486 78° East 323 372 19,000  Level Indianapolis Center
12:33AM 39.7572 -85.2347 78° East 322 371 19,000  Level Indianapolis Center
12:34AM 39.7786 -85.1008 78° East 323 372 19,000  Level Indianapolis Center
12:35AM 39.7969 -84.9864 78° East 322 371 19,000 -360 Level Indianapolis Center
12:36AM 39.8117 -84.8836 79° East 328 377 18,300 -720 Descending Indianapolis Center
12:37AM 39.8306 -84.7611 79° East 342 394 17,600 -900 Descending Indianapolis Center
12:38AM 39.8511 -84.6397 78° East 340 391 16,600 -1,080 Descending Indianapolis Center
12:39AM 39.8628 -84.5578 79° East 336 387 15,900 -1,140 Descending Indianapolis Center
12:39AM 39.8686 -84.5122 81° East 331 381 15,500 -1,020 Descending Indianapolis Center
12:40AM 39.8864 -84.3978 79° East 319 367 14,500 -1,020 Descending Indianapolis Center
12:41AM 39.9033 -84.2886 79° East 313 360 13,500 -1,020 Descending Indianapolis Center
12:42AM 39.9211 -84.1711 79° East 312 359 12,500 -1,020 Descending Indianapolis Center
12:43AM 39.9356 -84.0642 80° East 306 352 11,500 -1,020 Descending Indianapolis Center
12:44AM 39.9525 -83.9547 79° East 300 345 10,500 -1,020 Descending Indianapolis Center
12:45AM 39.9644 -83.8528 81° East 322 371 9,500 -1,080 Descending Indianapolis Center
12:46AM 39.9853 -83.7439 76° East 279 321 8,400 -1,080 Descending Indianapolis Center
12:47AM 39.9989 -83.6419 80° East 293 337 7,400 -1,080 Descending Indianapolis Center
12:48AM 40.0125 -83.5431 80° East 288 331 6,300 -1,080 Descending Indianapolis Center
12:49AM 40.0258 -83.4467 80° East 267 307 5,300 -840 Descending Indianapolis Center
12:50AM 40.0378 -83.3692 79° East 270 311 4,700 -600 Descending Indianapolis Center
12:52AM 40.0443 -83.2513 78° East  Level FlightAware Approximate
12:59AM 40.0667 -83.0667 90° East  Level FlightAware Approximate
01:00AM 40.0798 -83.0732 90° East  Level Estimated
01:01AM 40.0798 -83.0732 90° East  Level Estimated